sensor_id;sensor_type;location;lat;lon;timestamp;P1;durP1;ratioP1;P2;durP2;ratioP2
33954;SDS011;20233;50.804;7.126;2022-12-18T00:01:56;35.97;;;13.93;;
33954;SDS011;20233;50.804;7.126;2022-12-18T00:04:25;29.75;;;13.77;;
33954;SDS011;20233;50.804;7.126;2022-12-18T00:06:53;26.92;;;14.30;;
33954;SDS011;20233;50.804;7.126;2022-12-18T00:09:20;29.77;;;14.30;;
33954;SDS011;20233;50.804;7.126;2022-12-18T00:11:48;32.50;;;13.32;;
33954;SDS011;20233;50.804;7.126;2022-12-18T00:14:14;28.33;;;13.63;;
33954;SDS011;20233;50.804;7.126;2022-12-18T00:16:43;33.85;;;15.40;;
33954;SDS011;20233;50.804;7.126;2022-12-18T00:19:10;32.22;;;14.50;;
33954;SDS011;20233;50.804;7.126;2022-12-18T00:21:40;29.92;;;13.48;;
33954;SDS011;20233;50.804;7.126;2022-12-18T00:24:08;31.65;;;14.30;;
33954;SDS011;20233;50.804;7.126;2022-12-18T00:26:36;27.33;;;13.52;;
33954;SDS011;20233;50.804;7.126;2022-12-18T00:29:05;29.63;;;14.05;;
33954;SDS011;20233;50.804;7.126;2022-12-18T00:31:35;31.92;;;14.60;;
33954;SDS011;20233;50.804;7.126;2022-12-18T00:34:03;31.75;;;13.70;;
33954;SDS011;20233;50.804;7.126;2022-12-18T00:36:32;28.20;;;14.65;;
33954;SDS011;20233;50.804;7.126;2022-12-18T00:39:01;27.95;;;13.70;;
33954;SDS011;20233;50.804;7.126;2022-12-18T00:41:29;29.92;;;14.35;;
33954;SDS011;20233;50.804;7.126;2022-12-18T00:44:15;28.80;;;13.15;;
33954;SDS011;20233;50.804;7.126;2022-12-18T00:46:43;29.13;;;14.35;;
33954;SDS011;20233;50.804;7.126;2022-12-18T00:49:11;31.30;;;14.20;;
33954;SDS011;20233;50.804;7.126;2022-12-18T00:51:37;30.95;;;13.82;;
33954;SDS011;20233;50.804;7.126;2022-12-18T00:54:04;30.98;;;13.13;;
33954;SDS011;20233;50.804;7.126;2022-12-18T00:56:30;32.03;;;13.90;;
33954;SDS011;20233;50.804;7.126;2022-12-18T00:58:57;32.20;;;15.75;;
33954;SDS011;20233;50.804;7.126;2022-12-18T01:01:24;29.40;;;14.02;;
33954;SDS011;20233;50.804;7.126;2022-12-18T01:03:51;34.80;;;14.73;;
33954;SDS011;20233;50.804;7.126;2022-12-18T01:06:18;32.28;;;14.98;;
33954;SDS011;20233;50.804;7.126;2022-12-18T01:08:44;31.08;;;13.07;;
33954;SDS011;20233;50.804;7.126;2022-12-18T01:11:11;34.05;;;13.60;;
33954;SDS011;20233;50.804;7.126;2022-12-18T01:13:39;38.85;;;15.73;;
33954;SDS011;20233;50.804;7.126;2022-12-18T01:16:05;29.15;;;13.48;;
33954;SDS011;20233;50.804;7.126;2022-12-18T01:18:32;32.33;;;14.18;;
33954;SDS011;20233;50.804;7.126;2022-12-18T01:20:58;31.40;;;15.18;;
33954;SDS011;20233;50.804;7.126;2022-12-18T01:23:26;32.33;;;14.13;;
33954;SDS011;20233;50.804;7.126;2022-12-18T01:25:53;32.20;;;12.90;;
33954;SDS011;20233;50.804;7.126;2022-12-18T01:28:20;33.35;;;13.95;;
33954;SDS011;20233;50.804;7.126;2022-12-18T01:30:47;33.63;;;13.82;;
33954;SDS011;20233;50.804;7.126;2022-12-18T01:33:13;29.48;;;13.07;;
33954;SDS011;20233;50.804;7.126;2022-12-18T01:35:40;34.00;;;14.75;;
33954;SDS011;20233;50.804;7.126;2022-12-18T01:38:09;34.63;;;15.02;;
33954;SDS011;20233;50.804;7.126;2022-12-18T01:40:35;29.02;;;14.35;;
33954;SDS011;20233;50.804;7.126;2022-12-18T01:43:02;29.73;;;12.65;;
33954;SDS011;20233;50.804;7.126;2022-12-18T01:45:29;28.40;;;13.82;;
33954;SDS011;20233;50.804;7.126;2022-12-18T01:48:04;28.73;;;12.80;;
33954;SDS011;20233;50.804;7.126;2022-12-18T01:50:35;28.60;;;13.60;;
33954;SDS011;20233;50.804;7.126;2022-12-18T01:53:07;32.30;;;13.60;;
33954;SDS011;20233;50.804;7.126;2022-12-18T01:55:53;30.42;;;13.38;;
33954;SDS011;20233;50.804;7.126;2022-12-18T01:58:24;28.63;;;13.18;;
33954;SDS011;20233;50.804;7.126;2022-12-18T02:00:59;29.33;;;13.43;;
33954;SDS011;20233;50.804;7.126;2022-12-18T02:03:27;29.80;;;13.52;;
33954;SDS011;20233;50.804;7.126;2022-12-18T02:06:27;32.58;;;15.10;;
33954;SDS011;20233;50.804;7.126;2022-12-18T02:08:58;30.33;;;13.05;;
33954;SDS011;20233;50.804;7.126;2022-12-18T02:14:33;29.45;;;13.40;;
33954;SDS011;20233;50.804;7.126;2022-12-18T02:17:21;30.10;;;14.20;;
33954;SDS011;20233;50.804;7.126;2022-12-18T02:28:06;33.10;;;13.68;;
33954;SDS011;20233;50.804;7.126;2022-12-18T02:30:36;30.35;;;13.60;;
33954;SDS011;20233;50.804;7.126;2022-12-18T02:33:04;30.75;;;12.93;;
33954;SDS011;20233;50.804;7.126;2022-12-18T02:35:32;33.63;;;13.85;;
33954;SDS011;20233;50.804;7.126;2022-12-18T02:38:01;29.50;;;13.77;;
33954;SDS011;20233;50.804;7.126;2022-12-18T02:40:29;28.70;;;12.48;;
33954;SDS011;20233;50.804;7.126;2022-12-18T02:43:01;33.33;;;13.85;;
33954;SDS011;20233;50.804;7.126;2022-12-18T02:45:32;28.10;;;12.88;;
33954;SDS011;20233;50.804;7.126;2022-12-18T02:48:00;27.88;;;13.52;;
33954;SDS011;20233;50.804;7.126;2022-12-18T02:53:10;31.15;;;13.07;;
33954;SDS011;20233;50.804;7.126;2022-12-18T02:56:07;31.40;;;13.13;;
33954;SDS011;20233;50.804;7.126;2022-12-18T02:59:07;30.65;;;14.30;;
33954;SDS011;20233;50.804;7.126;2022-12-18T03:01:45;26.80;;;11.48;;
33954;SDS011;20233;50.804;7.126;2022-12-18T03:04:30;30.17;;;13.07;;
33954;SDS011;20233;50.804;7.126;2022-12-18T03:07:06;27.40;;;13.15;;
33954;SDS011;20233;50.804;7.126;2022-12-18T03:09:36;32.45;;;13.85;;
33954;SDS011;20233;50.804;7.126;2022-12-18T03:12:29;25.88;;;9.93;;
33954;SDS011;20233;50.804;7.126;2022-12-18T03:17:45;30.10;;;13.18;;
33954;SDS011;20233;50.804;7.126;2022-12-18T03:20:18;30.30;;;13.35;;
33954;SDS011;20233;50.804;7.126;2022-12-18T03:22:49;28.40;;;12.65;;
33954;SDS011;20233;50.804;7.126;2022-12-18T03:25:19;27.33;;;12.63;;
33954;SDS011;20233;50.804;7.126;2022-12-18T03:27:51;27.10;;;12.45;;
33954;SDS011;20233;50.804;7.126;2022-12-18T03:30:21;26.45;;;13.55;;
33954;SDS011;20233;50.804;7.126;2022-12-18T03:32:50;32.30;;;13.20;;
33954;SDS011;20233;50.804;7.126;2022-12-18T03:35:21;28.60;;;13.52;;
33954;SDS011;20233;50.804;7.126;2022-12-18T03:37:52;28.23;;;13.05;;
33954;SDS011;20233;50.804;7.126;2022-12-18T03:40:20;32.38;;;13.07;;
33954;SDS011;20233;50.804;7.126;2022-12-18T03:42:51;26.10;;;13.68;;
33954;SDS011;20233;50.804;7.126;2022-12-18T03:48:03;28.67;;;12.18;;
33954;SDS011;20233;50.804;7.126;2022-12-18T03:50:59;27.98;;;12.93;;
33954;SDS011;20233;50.804;7.126;2022-12-18T03:56:25;29.88;;;14.02;;
33954;SDS011;20233;50.804;7.126;2022-12-18T03:58:55;30.10;;;14.45;;
33954;SDS011;20233;50.804;7.126;2022-12-18T04:01:34;28.23;;;13.07;;
33954;SDS011;20233;50.804;7.126;2022-12-18T04:06:32;29.20;;;12.18;;
33954;SDS011;20233;50.804;7.126;2022-12-18T04:09:00;26.98;;;11.90;;
33954;SDS011;20233;50.804;7.126;2022-12-18T04:11:27;32.33;;;14.10;;
33954;SDS011;20233;50.804;7.126;2022-12-18T04:13:57;26.70;;;12.82;;
33954;SDS011;20233;50.804;7.126;2022-12-18T04:16:25;34.30;;;14.27;;
33954;SDS011;20233;50.804;7.126;2022-12-18T04:18:52;28.63;;;13.10;;
33954;SDS011;20233;50.804;7.126;2022-12-18T04:21:19;27.48;;;12.68;;
33954;SDS011;20233;50.804;7.126;2022-12-18T04:23:46;28.38;;;13.88;;
33954;SDS011;20233;50.804;7.126;2022-12-18T04:26:13;31.63;;;12.95;;
33954;SDS011;20233;50.804;7.126;2022-12-18T04:28:39;32.53;;;13.40;;
33954;SDS011;20233;50.804;7.126;2022-12-18T04:31:06;31.35;;;14.15;;
33954;SDS011;20233;50.804;7.126;2022-12-18T04:33:32;29.35;;;14.13;;
33954;SDS011;20233;50.804;7.126;2022-12-18T04:35:58;33.47;;;14.77;;
33954;SDS011;20233;50.804;7.126;2022-12-18T04:38:25;28.02;;;13.10;;
33954;SDS011;20233;50.804;7.126;2022-12-18T04:40:53;32.95;;;13.55;;
33954;SDS011;20233;50.804;7.126;2022-12-18T04:43:20;32.50;;;13.65;;
33954;SDS011;20233;50.804;7.126;2022-12-18T04:45:46;28.13;;;13.32;;
33954;SDS011;20233;50.804;7.126;2022-12-18T04:48:13;32.20;;;13.50;;
33954;SDS011;20233;50.804;7.126;2022-12-18T04:50:39;31.80;;;15.85;;
33954;SDS011;20233;50.804;7.126;2022-12-18T04:53:08;31.08;;;14.55;;
33954;SDS011;20233;50.804;7.126;2022-12-18T04:55:34;27.17;;;13.52;;
33954;SDS011;20233;50.804;7.126;2022-12-18T04:58:01;31.75;;;13.93;;
33954;SDS011;20233;50.804;7.126;2022-12-18T05:00:28;29.15;;;14.23;;
33954;SDS011;20233;50.804;7.126;2022-12-18T05:02:55;32.40;;;13.20;;
33954;SDS011;20233;50.804;7.126;2022-12-18T05:05:22;33.10;;;14.48;;
33954;SDS011;20233;50.804;7.126;2022-12-18T05:07:49;30.90;;;12.93;;
33954;SDS011;20233;50.804;7.126;2022-12-18T05:10:16;30.73;;;13.48;;
33954;SDS011;20233;50.804;7.126;2022-12-18T05:12:42;26.52;;;13.02;;
33954;SDS011;20233;50.804;7.126;2022-12-18T05:15:31;30.75;;;14.25;;
33954;SDS011;20233;50.804;7.126;2022-12-18T05:17:58;31.80;;;13.40;;
33954;SDS011;20233;50.804;7.126;2022-12-18T05:20:25;27.77;;;13.85;;
33954;SDS011;20233;50.804;7.126;2022-12-18T05:22:52;32.08;;;12.98;;
33954;SDS011;20233;50.804;7.126;2022-12-18T05:25:38;26.88;;;13.23;;
33954;SDS011;20233;50.804;7.126;2022-12-18T05:28:04;29.20;;;13.15;;
33954;SDS011;20233;50.804;7.126;2022-12-18T05:30:30;28.45;;;14.35;;
33954;SDS011;20233;50.804;7.126;2022-12-18T05:32:59;28.13;;;13.63;;
33954;SDS011;20233;50.804;7.126;2022-12-18T05:35:26;29.33;;;14.05;;
33954;SDS011;20233;50.804;7.126;2022-12-18T05:37:53;24.17;;;11.75;;
33954;SDS011;20233;50.804;7.126;2022-12-18T05:40:20;30.23;;;13.65;;
33954;SDS011;20233;50.804;7.126;2022-12-18T05:42:47;28.73;;;13.80;;
33954;SDS011;20233;50.804;7.126;2022-12-18T05:45:14;25.13;;;12.85;;
33954;SDS011;20233;50.804;7.126;2022-12-18T05:47:40;31.88;;;13.80;;
33954;SDS011;20233;50.804;7.126;2022-12-18T05:50:07;27.42;;;13.27;;
33954;SDS011;20233;50.804;7.126;2022-12-18T05:52:33;27.30;;;13.18;;
33954;SDS011;20233;50.804;7.126;2022-12-18T05:55:00;24.58;;;13.43;;
33954;SDS011;20233;50.804;7.126;2022-12-18T05:57:26;35.88;;;15.27;;
33954;SDS011;20233;50.804;7.126;2022-12-18T05:59:53;36.25;;;17.15;;
33954;SDS011;20233;50.804;7.126;2022-12-18T06:02:20;34.75;;;15.90;;
33954;SDS011;20233;50.804;7.126;2022-12-18T06:04:46;29.60;;;13.93;;
33954;SDS011;20233;50.804;7.126;2022-12-18T06:07:13;29.08;;;14.30;;
33954;SDS011;20233;50.804;7.126;2022-12-18T06:09:40;32.58;;;14.68;;
33954;SDS011;20233;50.804;7.126;2022-12-18T06:12:06;33.58;;;14.32;;
33954;SDS011;20233;50.804;7.126;2022-12-18T06:14:32;28.77;;;14.18;;
33954;SDS011;20233;50.804;7.126;2022-12-18T06:16:59;34.70;;;15.38;;
33954;SDS011;20233;50.804;7.126;2022-12-18T06:19:26;36.33;;;15.82;;
33954;SDS011;20233;50.804;7.126;2022-12-18T06:21:52;36.80;;;14.80;;
33954;SDS011;20233;50.804;7.126;2022-12-18T06:24:18;35.78;;;15.68;;
33954;SDS011;20233;50.804;7.126;2022-12-18T06:26:45;29.80;;;14.65;;
33954;SDS011;20233;50.804;7.126;2022-12-18T06:29:12;38.85;;;15.63;;
33954;SDS011;20233;50.804;7.126;2022-12-18T06:31:40;34.60;;;15.90;;
33954;SDS011;20233;50.804;7.126;2022-12-18T06:34:07;34.13;;;14.95;;
33954;SDS011;20233;50.804;7.126;2022-12-18T06:36:33;32.70;;;14.93;;
33954;SDS011;20233;50.804;7.126;2022-12-18T06:38:59;32.42;;;15.45;;
33954;SDS011;20233;50.804;7.126;2022-12-18T06:41:26;34.75;;;16.30;;
33954;SDS011;20233;50.804;7.126;2022-12-18T06:43:53;34.78;;;16.67;;
33954;SDS011;20233;50.804;7.126;2022-12-18T06:46:19;39.03;;;16.80;;
33954;SDS011;20233;50.804;7.126;2022-12-18T06:48:47;36.63;;;16.02;;
33954;SDS011;20233;50.804;7.126;2022-12-18T06:51:19;37.15;;;17.17;;
33954;SDS011;20233;50.804;7.126;2022-12-18T06:53:46;37.38;;;16.58;;
33954;SDS011;20233;50.804;7.126;2022-12-18T06:56:13;36.70;;;16.05;;
33954;SDS011;20233;50.804;7.126;2022-12-18T06:58:41;36.38;;;16.67;;
33954;SDS011;20233;50.804;7.126;2022-12-18T07:01:09;32.88;;;14.98;;
33954;SDS011;20233;50.804;7.126;2022-12-18T07:03:37;33.63;;;15.90;;
33954;SDS011;20233;50.804;7.126;2022-12-18T07:06:05;33.15;;;15.30;;
33954;SDS011;20233;50.804;7.126;2022-12-18T07:08:43;30.25;;;14.32;;
33954;SDS011;20233;50.804;7.126;2022-12-18T07:11:10;37.53;;;15.45;;
33954;SDS011;20233;50.804;7.126;2022-12-18T07:13:37;36.70;;;16.20;;
33954;SDS011;20233;50.804;7.126;2022-12-18T07:16:07;33.35;;;15.00;;
33954;SDS011;20233;50.804;7.126;2022-12-18T07:18:36;34.53;;;15.77;;
33954;SDS011;20233;50.804;7.126;2022-12-18T07:21:04;38.35;;;16.08;;
33954;SDS011;20233;50.804;7.126;2022-12-18T07:23:37;34.03;;;15.57;;
33954;SDS011;20233;50.804;7.126;2022-12-18T07:26:04;33.92;;;14.65;;
33954;SDS011;20233;50.804;7.126;2022-12-18T07:28:35;31.15;;;14.05;;
33954;SDS011;20233;50.804;7.126;2022-12-18T07:31:03;32.60;;;15.15;;
33954;SDS011;20233;50.804;7.126;2022-12-18T07:33:33;31.45;;;15.52;;
33954;SDS011;20233;50.804;7.126;2022-12-18T07:36:01;39.45;;;15.80;;
33954;SDS011;20233;50.804;7.126;2022-12-18T07:38:29;39.58;;;15.43;;
33954;SDS011;20233;50.804;7.126;2022-12-18T07:41:04;40.20;;;17.13;;
33954;SDS011;20233;50.804;7.126;2022-12-18T07:43:34;38.45;;;15.32;;
33954;SDS011;20233;50.804;7.126;2022-12-18T07:46:01;37.53;;;17.25;;
33954;SDS011;20233;50.804;7.126;2022-12-18T07:48:28;39.58;;;15.88;;
33954;SDS011;20233;50.804;7.126;2022-12-18T07:50:59;36.17;;;15.93;;
33954;SDS011;20233;50.804;7.126;2022-12-18T07:53:30;37.53;;;15.88;;
33954;SDS011;20233;50.804;7.126;2022-12-18T07:55:58;40.05;;;16.55;;
33954;SDS011;20233;50.804;7.126;2022-12-18T07:58:25;35.80;;;15.63;;
33954;SDS011;20233;50.804;7.126;2022-12-18T08:00:52;36.75;;;16.95;;
33954;SDS011;20233;50.804;7.126;2022-12-18T08:03:19;31.98;;;15.55;;
33954;SDS011;20233;50.804;7.126;2022-12-18T08:05:46;31.75;;;15.45;;
33954;SDS011;20233;50.804;7.126;2022-12-18T08:08:16;41.15;;;16.35;;
33954;SDS011;20233;50.804;7.126;2022-12-18T08:10:42;38.03;;;15.68;;
33954;SDS011;20233;50.804;7.126;2022-12-18T08:13:08;37.38;;;16.75;;
33954;SDS011;20233;50.804;7.126;2022-12-18T08:15:35;32.05;;;14.50;;
33954;SDS011;20233;50.804;7.126;2022-12-18T08:18:01;39.65;;;18.13;;
33954;SDS011;20233;50.804;7.126;2022-12-18T08:20:29;39.10;;;19.23;;
33954;SDS011;20233;50.804;7.126;2022-12-18T08:22:56;36.78;;;15.40;;
33954;SDS011;20233;50.804;7.126;2022-12-18T08:25:23;41.72;;;17.95;;
33954;SDS011;20233;50.804;7.126;2022-12-18T08:27:50;38.85;;;17.38;;
33954;SDS011;20233;50.804;7.126;2022-12-18T08:30:17;39.70;;;18.13;;
33954;SDS011;20233;50.804;7.126;2022-12-18T08:32:44;33.53;;;17.33;;
33954;SDS011;20233;50.804;7.126;2022-12-18T08:35:11;40.70;;;18.40;;
33954;SDS011;20233;50.804;7.126;2022-12-18T08:37:37;40.58;;;17.35;;
33954;SDS011;20233;50.804;7.126;2022-12-18T08:40:04;35.38;;;16.17;;
33954;SDS011;20233;50.804;7.126;2022-12-18T08:42:31;36.25;;;17.35;;
33954;SDS011;20233;50.804;7.126;2022-12-18T08:45:16;39.10;;;16.30;;
33954;SDS011;20233;50.804;7.126;2022-12-18T08:47:42;36.15;;;16.85;;
33954;SDS011;20233;50.804;7.126;2022-12-18T08:50:09;39.35;;;17.50;;
33954;SDS011;20233;50.804;7.126;2022-12-18T08:52:37;36.10;;;16.60;;
33954;SDS011;20233;50.804;7.126;2022-12-18T08:55:04;35.95;;;18.50;;
33954;SDS011;20233;50.804;7.126;2022-12-18T08:57:31;39.08;;;18.60;;
33954;SDS011;20233;50.804;7.126;2022-12-18T08:59:57;41.28;;;19.35;;
33954;SDS011;20233;50.804;7.126;2022-12-18T09:02:24;38.13;;;20.88;;
33954;SDS011;20233;50.804;7.126;2022-12-18T09:04:52;36.30;;;17.10;;
33954;SDS011;20233;50.804;7.126;2022-12-18T09:07:19;34.42;;;17.75;;
33954;SDS011;20233;50.804;7.126;2022-12-18T09:09:46;34.85;;;16.60;;
33954;SDS011;20233;50.804;7.126;2022-12-18T09:12:12;33.70;;;17.02;;
33954;SDS011;20233;50.804;7.126;2022-12-18T09:14:38;36.80;;;17.65;;
33954;SDS011;20233;50.804;7.126;2022-12-18T09:17:05;35.47;;;17.05;;
33954;SDS011;20233;50.804;7.126;2022-12-18T09:19:32;34.20;;;17.17;;
33954;SDS011;20233;50.804;7.126;2022-12-18T09:21:59;43.80;;;19.05;;
33954;SDS011;20233;50.804;7.126;2022-12-18T09:24:25;40.55;;;18.52;;
33954;SDS011;20233;50.804;7.126;2022-12-18T09:26:53;43.55;;;19.00;;
33954;SDS011;20233;50.804;7.126;2022-12-18T09:29:20;39.00;;;17.55;;
33954;SDS011;20233;50.804;7.126;2022-12-18T09:31:47;37.28;;;16.80;;
33954;SDS011;20233;50.804;7.126;2022-12-18T09:34:14;36.03;;;16.30;;
33954;SDS011;20233;50.804;7.126;2022-12-18T09:36:41;32.03;;;14.43;;
33954;SDS011;20233;50.804;7.126;2022-12-18T09:39:08;30.55;;;16.35;;
33954;SDS011;20233;50.804;7.126;2022-12-18T09:47:23;29.15;;;15.02;;
33954;SDS011;20233;50.804;7.126;2022-12-18T09:50:00;35.33;;;16.33;;
33954;SDS011;20233;50.804;7.126;2022-12-18T09:57:49;34.33;;;14.98;;
33954;SDS011;20233;50.804;7.126;2022-12-18T10:00:21;31.88;;;14.65;;
33954;SDS011;20233;50.804;7.126;2022-12-18T10:02:51;32.58;;;14.18;;
33954;SDS011;20233;50.804;7.126;2022-12-18T10:10:53;31.85;;;14.30;;
33954;SDS011;20233;50.804;7.126;2022-12-18T10:22:51;27.57;;;13.63;;
33954;SDS011;20233;50.804;7.126;2022-12-18T10:28:17;25.30;;;13.63;;
33954;SDS011;20233;50.804;7.126;2022-12-18T10:30:52;28.70;;;13.27;;
33954;SDS011;20233;50.804;7.126;2022-12-18T10:33:22;28.95;;;14.43;;
33954;SDS011;20233;50.804;7.126;2022-12-18T10:35:50;23.27;;;11.40;;
33954;SDS011;20233;50.804;7.126;2022-12-18T10:43:39;27.00;;;13.18;;
33954;SDS011;20233;50.804;7.126;2022-12-18T10:54:03;25.75;;;11.95;;
33954;SDS011;20233;50.804;7.126;2022-12-18T10:56:40;28.98;;;13.48;;
33954;SDS011;20233;50.804;7.126;2022-12-18T11:04:20;25.23;;;13.35;;
33954;SDS011;20233;50.804;7.126;2022-12-18T11:06:58;23.85;;;11.70;;
33954;SDS011;20233;50.804;7.126;2022-12-18T11:09:32;28.70;;;13.02;;
33954;SDS011;20233;50.804;7.126;2022-12-18T11:12:04;29.77;;;13.70;;
33954;SDS011;20233;50.804;7.126;2022-12-18T11:14:42;27.10;;;12.45;;
33954;SDS011;20233;50.804;7.126;2022-12-18T11:19:51;27.52;;;13.45;;
33954;SDS011;20233;50.804;7.126;2022-12-18T11:22:21;29.00;;;14.63;;
33954;SDS011;20233;50.804;7.126;2022-12-18T11:27:22;31.73;;;13.55;;
33954;SDS011;20233;50.804;7.126;2022-12-18T11:29:50;28.58;;;13.25;;
33954;SDS011;20233;50.804;7.126;2022-12-18T11:35:11;26.10;;;13.75;;
33954;SDS011;20233;50.804;7.126;2022-12-18T11:38:01;28.30;;;14.45;;
33954;SDS011;20233;50.804;7.126;2022-12-18T11:40:35;26.15;;;12.50;;
33954;SDS011;20233;50.804;7.126;2022-12-18T11:45:34;25.67;;;13.52;;
33954;SDS011;20233;50.804;7.126;2022-12-18T11:48:22;31.13;;;14.73;;
33954;SDS011;20233;50.804;7.126;2022-12-18T11:51:04;32.90;;;15.82;;
33954;SDS011;20233;50.804;7.126;2022-12-18T11:53:37;33.17;;;16.30;;
33954;SDS011;20233;50.804;7.126;2022-12-18T11:59:17;30.27;;;15.25;;
33954;SDS011;20233;50.804;7.126;2022-12-18T12:07:49;31.17;;;14.55;;
33954;SDS011;20233;50.804;7.126;2022-12-18T12:11:07;26.33;;;13.50;;
33954;SDS011;20233;50.804;7.126;2022-12-18T12:14:12;29.90;;;15.40;;
33954;SDS011;20233;50.804;7.126;2022-12-18T12:22:00;33.85;;;14.88;;
33954;SDS011;20233;50.804;7.126;2022-12-18T12:24:45;33.17;;;15.05;;
33954;SDS011;20233;50.804;7.126;2022-12-18T12:27:37;31.08;;;16.35;;
33954;SDS011;20233;50.804;7.126;2022-12-18T12:30:16;33.88;;;16.20;;
33954;SDS011;20233;50.804;7.126;2022-12-18T12:35:50;34.78;;;15.65;;
33954;SDS011;20233;50.804;7.126;2022-12-18T12:38:27;33.53;;;17.35;;
33954;SDS011;20233;50.804;7.126;2022-12-18T12:41:12;33.33;;;16.02;;
33954;SDS011;20233;50.804;7.126;2022-12-18T12:44:00;35.28;;;16.90;;
33954;SDS011;20233;50.804;7.126;2022-12-18T12:46:31;33.25;;;16.70;;
33954;SDS011;20233;50.804;7.126;2022-12-18T12:49:03;32.15;;;15.32;;
33954;SDS011;20233;50.804;7.126;2022-12-18T12:51:38;33.08;;;15.57;;
33954;SDS011;20233;50.804;7.126;2022-12-18T12:54:14;33.90;;;17.20;;
33954;SDS011;20233;50.804;7.126;2022-12-18T12:59:25;34.22;;;16.88;;
33954;SDS011;20233;50.804;7.126;2022-12-18T13:01:56;33.67;;;16.10;;
33954;SDS011;20233;50.804;7.126;2022-12-18T13:12:52;36.53;;;17.92;;
33954;SDS011;20233;50.804;7.126;2022-12-18T13:25:53;31.90;;;16.13;;
33954;SDS011;20233;50.804;7.126;2022-12-18T13:36:51;35.28;;;18.27;;
33954;SDS011;20233;50.804;7.126;2022-12-18T13:41:50;32.67;;;16.52;;
33954;SDS011;20233;50.804;7.126;2022-12-18T13:44:33;34.10;;;17.55;;
33954;SDS011;20233;50.804;7.126;2022-12-18T13:47:31;36.83;;;18.02;;
33954;SDS011;20233;50.804;7.126;2022-12-18T13:49:58;29.85;;;15.90;;
33954;SDS011;20233;50.804;7.126;2022-12-18T13:52:26;30.90;;;14.88;;
33954;SDS011;20233;50.804;7.126;2022-12-18T13:54:55;32.17;;;16.25;;
33954;SDS011;20233;50.804;7.126;2022-12-18T13:59:51;31.02;;;16.13;;
33954;SDS011;20233;50.804;7.126;2022-12-18T14:02:18;34.40;;;16.67;;
33954;SDS011;20233;50.804;7.126;2022-12-18T14:04:48;34.80;;;17.35;;
33954;SDS011;20233;50.804;7.126;2022-12-18T14:10:11;36.15;;;17.27;;
33954;SDS011;20233;50.804;7.126;2022-12-18T14:21:29;28.52;;;14.93;;
33954;SDS011;20233;50.804;7.126;2022-12-18T14:24:06;38.15;;;17.42;;
33954;SDS011;20233;50.804;7.126;2022-12-18T14:26:40;35.53;;;17.40;;
33954;SDS011;20233;50.804;7.126;2022-12-18T14:29:24;32.22;;;17.17;;
33954;SDS011;20233;50.804;7.126;2022-12-18T14:32:06;37.67;;;17.08;;
33954;SDS011;20233;50.804;7.126;2022-12-18T14:34:37;33.92;;;18.05;;
33954;SDS011;20233;50.804;7.126;2022-12-18T14:37:04;35.97;;;18.70;;
33954;SDS011;20233;50.804;7.126;2022-12-18T14:39:34;32.95;;;17.70;;
33954;SDS011;20233;50.804;7.126;2022-12-18T14:42:01;32.47;;;16.10;;
33954;SDS011;20233;50.804;7.126;2022-12-18T14:44:28;32.80;;;16.15;;
33954;SDS011;20233;50.804;7.126;2022-12-18T14:46:56;35.30;;;18.95;;
33954;SDS011;20233;50.804;7.126;2022-12-18T14:52:03;35.20;;;17.92;;
33954;SDS011;20233;50.804;7.126;2022-12-18T14:54:32;34.25;;;18.48;;
33954;SDS011;20233;50.804;7.126;2022-12-18T14:57:18;35.55;;;18.63;;
33954;SDS011;20233;50.804;7.126;2022-12-18T14:59:52;35.63;;;18.07;;
33954;SDS011;20233;50.804;7.126;2022-12-18T15:02:20;31.95;;;17.55;;
33954;SDS011;20233;50.804;7.126;2022-12-18T15:07:51;36.47;;;17.67;;
33954;SDS011;20233;50.804;7.126;2022-12-18T15:10:30;40.20;;;18.45;;
33954;SDS011;20233;50.804;7.126;2022-12-18T15:23:15;35.83;;;18.92;;
33954;SDS011;20233;50.804;7.126;2022-12-18T15:25:48;31.40;;;16.00;;
33954;SDS011;20233;50.804;7.126;2022-12-18T15:28:25;36.78;;;19.25;;
33954;SDS011;20233;50.804;7.126;2022-12-18T15:31:02;35.67;;;18.08;;
33954;SDS011;20233;50.804;7.126;2022-12-18T15:33:38;41.05;;;20.60;;
33954;SDS011;20233;50.804;7.126;2022-12-18T15:36:15;40.55;;;20.30;;
33954;SDS011;20233;50.804;7.126;2022-12-18T15:38:45;35.75;;;17.60;;
33954;SDS011;20233;50.804;7.126;2022-12-18T15:41:15;38.88;;;17.30;;
33954;SDS011;20233;50.804;7.126;2022-12-18T15:43:44;36.85;;;19.23;;
33954;SDS011;20233;50.804;7.126;2022-12-18T15:46:13;35.33;;;17.20;;
33954;SDS011;20233;50.804;7.126;2022-12-18T15:48:48;38.33;;;19.50;;
33954;SDS011;20233;50.804;7.126;2022-12-18T15:53:47;35.35;;;17.92;;
33954;SDS011;20233;50.804;7.126;2022-12-18T15:56:16;40.65;;;19.38;;
33954;SDS011;20233;50.804;7.126;2022-12-18T15:59:01;43.25;;;20.50;;
33954;SDS011;20233;50.804;7.126;2022-12-18T16:01:28;54.75;;;24.15;;
33954;SDS011;20233;50.804;7.126;2022-12-18T16:03:58;42.72;;;19.70;;
33954;SDS011;20233;50.804;7.126;2022-12-18T16:06:25;37.63;;;18.45;;
33954;SDS011;20233;50.804;7.126;2022-12-18T16:08:52;43.60;;;21.38;;
33954;SDS011;20233;50.804;7.126;2022-12-18T16:11:21;40.38;;;19.40;;
33954;SDS011;20233;50.804;7.126;2022-12-18T16:16:52;33.97;;;16.20;;
33954;SDS011;20233;50.804;7.126;2022-12-18T16:19:23;41.05;;;19.77;;
33954;SDS011;20233;50.804;7.126;2022-12-18T16:21:51;41.88;;;21.73;;
33954;SDS011;20233;50.804;7.126;2022-12-18T16:24:19;37.88;;;19.38;;
33954;SDS011;20233;50.804;7.126;2022-12-18T16:26:48;41.95;;;21.13;;
33954;SDS011;20233;50.804;7.126;2022-12-18T16:29:17;43.33;;;21.52;;
33954;SDS011;20233;50.804;7.126;2022-12-18T16:31:44;41.17;;;20.42;;
33954;SDS011;20233;50.804;7.126;2022-12-18T16:34:12;36.47;;;19.05;;
33954;SDS011;20233;50.804;7.126;2022-12-18T16:36:52;40.80;;;21.42;;
33954;SDS011;20233;50.804;7.126;2022-12-18T16:39:23;41.50;;;20.17;;
33954;SDS011;20233;50.804;7.126;2022-12-18T16:41:51;34.45;;;17.50;;
33954;SDS011;20233;50.804;7.126;2022-12-18T16:44:17;42.90;;;19.95;;
33954;SDS011;20233;50.804;7.126;2022-12-18T16:46:45;39.85;;;19.10;;
33954;SDS011;20233;50.804;7.126;2022-12-18T16:49:12;46.45;;;20.20;;
33954;SDS011;20233;50.804;7.126;2022-12-18T16:51:39;39.03;;;18.85;;
33954;SDS011;20233;50.804;7.126;2022-12-18T16:54:06;47.90;;;21.50;;
33954;SDS011;20233;50.804;7.126;2022-12-18T16:56:32;41.50;;;20.30;;
33954;SDS011;20233;50.804;7.126;2022-12-18T16:58:59;37.58;;;17.08;;
33954;SDS011;20233;50.804;7.126;2022-12-18T17:01:28;44.15;;;20.42;;
33954;SDS011;20233;50.804;7.126;2022-12-18T17:03:59;40.30;;;19.10;;
33954;SDS011;20233;50.804;7.126;2022-12-18T17:06:31;44.53;;;20.60;;
33954;SDS011;20233;50.804;7.126;2022-12-18T17:09:00;41.88;;;20.88;;
33954;SDS011;20233;50.804;7.126;2022-12-18T17:11:34;44.50;;;21.65;;
33954;SDS011;20233;50.804;7.126;2022-12-18T17:14:15;44.15;;;22.50;;
33954;SDS011;20233;50.804;7.126;2022-12-18T17:16:44;46.20;;;22.80;;
33954;SDS011;20233;50.804;7.126;2022-12-18T17:19:10;44.25;;;20.50;;
33954;SDS011;20233;50.804;7.126;2022-12-18T17:21:37;44.55;;;21.63;;
33954;SDS011;20233;50.804;7.126;2022-12-18T17:24:04;46.05;;;21.15;;
33954;SDS011;20233;50.804;7.126;2022-12-18T17:26:34;50.67;;;23.47;;
33954;SDS011;20233;50.804;7.126;2022-12-18T17:29:01;44.33;;;21.80;;